sensor_id;sensor_type;location;lat;lon;timestamp;P1;durP1;ratioP1;P2;durP2;ratioP2
55035;SDS011;40936;53.008;6.556;2022-08-19T00:01:28;1999.90;;;999.90;;
55035;SDS011;40936;53.008;6.556;2022-08-19T00:03:58;1999.90;;;999.90;;
55035;SDS011;40936;53.008;6.556;2022-08-19T00:06:27;1999.90;;;999.90;;
55035;SDS011;40936;53.008;6.556;2022-08-19T00:08:54;1999.90;;;999.90;;
55035;SDS011;40936;53.008;6.556;2022-08-19T00:11:20;1999.90;;;970.65;;
55035;SDS011;40936;53.008;6.556;2022-08-19T00:13:46;1999.90;;;960.60;;
55035;SDS011;40936;53.008;6.556;2022-08-19T00:16:14;1999.90;;;869.67;;
55035;SDS011;40936;53.008;6.556;2022-08-19T00:18:40;1999.90;;;999.90;;
55035;SDS011;40936;53.008;6.556;2022-08-19T00:21:06;1999.90;;;953.63;;
55035;SDS011;40936;53.008;6.556;2022-08-19T00:23:32;1999.90;;;999.90;;
55035;SDS011;40936;53.008;6.556;2022-08-19T00:25:59;1999.90;;;832.72;;
55035;SDS011;40936;53.008;6.556;2022-08-19T00:28:25;1999.90;;;836.55;;
55035;SDS011;40936;53.008;6.556;2022-08-19T00:30:51;1999.90;;;924.05;;
55035;SDS011;40936;53.008;6.556;2022-08-19T00:33:18;1999.90;;;795.63;;
55035;SDS011;40936;53.008;6.556;2022-08-19T00:35:44;1999.90;;;806.00;;
55035;SDS011;40936;53.008;6.556;2022-08-19T00:38:09;1999.90;;;754.70;;
55035;SDS011;40936;53.008;6.556;2022-08-19T00:40:35;1999.90;;;855.10;;
55035;SDS011;40936;53.008;6.556;2022-08-19T00:43:01;1999.90;;;779.70;;
55035;SDS011;40936;53.008;6.556;2022-08-19T00:45:32;1999.90;;;889.38;;
55035;SDS011;40936;53.008;6.556;2022-08-19T00:47:58;1999.90;;;927.55;;
55035;SDS011;40936;53.008;6.556;2022-08-19T00:50:29;1999.90;;;999.90;;
55035;SDS011;40936;53.008;6.556;2022-08-19T00:52:55;1999.90;;;995.80;;
55035;SDS011;40936;53.008;6.556;2022-08-19T00:55:24;1999.90;;;999.90;;
55035;SDS011;40936;53.008;6.556;2022-08-19T00:58:01;1999.90;;;937.17;;
55035;SDS011;40936;53.008;6.556;2022-08-19T01:00:32;1999.90;;;999.90;;
55035;SDS011;40936;53.008;6.556;2022-08-19T01:03:02;1999.90;;;999.90;;
55035;SDS011;40936;53.008;6.556;2022-08-19T01:05:30;1975.15;;;999.90;;
55035;SDS011;40936;53.008;6.556;2022-08-19T01:07:57;1999.90;;;999.90;;
55035;SDS011;40936;53.008;6.556;2022-08-19T01:10:29;1950.88;;;999.90;;
55035;SDS011;40936;53.008;6.556;2022-08-19T01:12:58;1999.90;;;999.90;;
55035;SDS011;40936;53.008;6.556;2022-08-19T01:15:29;1986.82;;;999.90;;
55035;SDS011;40936;53.008;6.556;2022-08-19T01:18:04;1999.90;;;944.67;;
55035;SDS011;40936;53.008;6.556;2022-08-19T01:20:31;1835.90;;;903.97;;
55035;SDS011;40936;53.008;6.556;2022-08-19T01:22:59;1999.90;;;999.90;;
55035;SDS011;40936;53.008;6.556;2022-08-19T01:25:38;1999.90;;;951.40;;
55035;SDS011;40936;53.008;6.556;2022-08-19T01:28:08;1999.90;;;834.08;;
55035;SDS011;40936;53.008;6.556;2022-08-19T01:30:41;1999.90;;;999.90;;
55035;SDS011;40936;53.008;6.556;2022-08-19T01:33:08;1999.90;;;999.90;;
55035;SDS011;40936;53.008;6.556;2022-08-19T01:35:34;1999.90;;;953.25;;
55035;SDS011;40936;53.008;6.556;2022-08-19T01:38:02;1986.13;;;875.38;;
55035;SDS011;40936;53.008;6.556;2022-08-19T01:40:33;1904.45;;;878.92;;
55035;SDS011;40936;53.008;6.556;2022-08-19T01:43:01;1999.90;;;948.88;;
55035;SDS011;40936;53.008;6.556;2022-08-19T01:45:28;1896.30;;;981.20;;
55035;SDS011;40936;53.008;6.556;2022-08-19T01:47:55;1999.90;;;999.90;;
55035;SDS011;40936;53.008;6.556;2022-08-19T01:50:21;1999.90;;;999.90;;
55035;SDS011;40936;53.008;6.556;2022-08-19T01:52:47;1999.90;;;961.50;;
55035;SDS011;40936;53.008;6.556;2022-08-19T01:55:15;1999.90;;;877.17;;
55035;SDS011;40936;53.008;6.556;2022-08-19T01:57:44;1960.30;;;927.90;;
55035;SDS011;40936;53.008;6.556;2022-08-19T02:00:16;1999.90;;;904.28;;
55035;SDS011;40936;53.008;6.556;2022-08-19T02:02:43;1999.90;;;980.08;;
55035;SDS011;40936;53.008;6.556;2022-08-19T02:05:09;1999.90;;;992.70;;
55035;SDS011;40936;53.008;6.556;2022-08-19T02:07:35;1998.15;;;948.80;;
55035;SDS011;40936;53.008;6.556;2022-08-19T02:10:06;1999.90;;;999.90;;
55035;SDS011;40936;53.008;6.556;2022-08-19T02:12:34;1999.90;;;956.08;;
55035;SDS011;40936;53.008;6.556;2022-08-19T02:15:00;1999.90;;;913.28;;
55035;SDS011;40936;53.008;6.556;2022-08-19T02:17:27;1999.90;;;999.90;;
55035;SDS011;40936;53.008;6.556;2022-08-19T02:19:54;1999.90;;;964.65;;
55035;SDS011;40936;53.008;6.556;2022-08-19T02:22:21;1999.90;;;950.95;;
55035;SDS011;40936;53.008;6.556;2022-08-19T02:24:47;1999.90;;;945.17;;
55035;SDS011;40936;53.008;6.556;2022-08-19T02:27:13;1999.90;;;985.25;;
55035;SDS011;40936;53.008;6.556;2022-08-19T02:29:39;1999.90;;;967.40;;
55035;SDS011;40936;53.008;6.556;2022-08-19T02:32:06;1999.90;;;945.55;;
55035;SDS011;40936;53.008;6.556;2022-08-19T02:34:33;1999.90;;;955.50;;
55035;SDS011;40936;53.008;6.556;2022-08-19T02:36:59;1999.90;;;953.88;;
55035;SDS011;40936;53.008;6.556;2022-08-19T02:39:25;1999.90;;;999.90;;
55035;SDS011;40936;53.008;6.556;2022-08-19T02:41:51;1999.90;;;999.90;;
55035;SDS011;40936;53.008;6.556;2022-08-19T02:44:17;1999.90;;;999.90;;
55035;SDS011;40936;53.008;6.556;2022-08-19T02:46:44;1999.90;;;999.90;;
55035;SDS011;40936;53.008;6.556;2022-08-19T02:49:11;1999.90;;;999.90;;
55035;SDS011;40936;53.008;6.556;2022-08-19T02:51:39;1999.90;;;999.90;;
55035;SDS011;40936;53.008;6.556;2022-08-19T02:54:06;1999.90;;;999.90;;
55035;SDS011;40936;53.008;6.556;2022-08-19T02:56:34;1999.90;;;999.90;;
55035;SDS011;40936;53.008;6.556;2022-08-19T02:59:01;1999.90;;;999.90;;
55035;SDS011;40936;53.008;6.556;2022-08-19T03:01:28;1999.90;;;999.90;;
55035;SDS011;40936;53.008;6.556;2022-08-19T03:03:56;1999.90;;;999.90;;
55035;SDS011;40936;53.008;6.556;2022-08-19T03:06:24;1999.90;;;999.90;;
55035;SDS011;40936;53.008;6.556;2022-08-19T03:08:51;1999.90;;;999.90;;
55035;SDS011;40936;53.008;6.556;2022-08-19T03:11:24;1999.90;;;999.90;;
55035;SDS011;40936;53.008;6.556;2022-08-19T03:13:52;1999.90;;;999.90;;
55035;SDS011;40936;53.008;6.556;2022-08-19T03:16:19;1999.90;;;999.90;;
55035;SDS011;40936;53.008;6.556;2022-08-19T03:18:47;1999.90;;;999.90;;
55035;SDS011;40936;53.008;6.556;2022-08-19T03:21:17;1999.90;;;999.90;;
55035;SDS011;40936;53.008;6.556;2022-08-19T03:23:48;1999.90;;;999.90;;
55035;SDS011;40936;53.008;6.556;2022-08-19T03:26:14;1999.90;;;952.80;;
55035;SDS011;40936;53.008;6.556;2022-08-19T03:28:41;1999.90;;;856.60;;
55035;SDS011;40936;53.008;6.556;2022-08-19T03:31:10;1999.90;;;999.90;;
55035;SDS011;40936;53.008;6.556;2022-08-19T03:33:37;1999.90;;;999.90;;
55035;SDS011;40936;53.008;6.556;2022-08-19T03:36:05;1999.90;;;999.90;;
55035;SDS011;40936;53.008;6.556;2022-08-19T03:38:37;1999.90;;;999.90;;
55035;SDS011;40936;53.008;6.556;2022-08-19T03:41:08;1999.90;;;999.90;;
55035;SDS011;40936;53.008;6.556;2022-08-19T03:43:36;1999.90;;;999.90;;
55035;SDS011;40936;53.008;6.556;2022-08-19T03:46:22;1999.90;;;999.90;;
55035;SDS011;40936;53.008;6.556;2022-08-19T03:48:51;1999.90;;;999.90;;
55035;SDS011;40936;53.008;6.556;2022-08-19T03:51:22;1999.90;;;999.90;;
55035;SDS011;40936;53.008;6.556;2022-08-19T03:53:51;1999.90;;;999.90;;
55035;SDS011;40936;53.008;6.556;2022-08-19T03:56:18;1999.90;;;999.90;;
55035;SDS011;40936;53.008;6.556;2022-08-19T03:58:44;1999.90;;;999.90;;
55035;SDS011;40936;53.008;6.556;2022-08-19T04:01:12;1999.90;;;999.90;;
55035;SDS011;40936;53.008;6.556;2022-08-19T04:03:43;1999.90;;;999.90;;
55035;SDS011;40936;53.008;6.556;2022-08-19T04:08:42;1999.90;;;999.90;;
55035;SDS011;40936;53.008;6.556;2022-08-19T04:11:10;1999.90;;;999.90;;
55035;SDS011;40936;53.008;6.556;2022-08-19T04:16:03;1999.90;;;999.90;;
55035;SDS011;40936;53.008;6.556;2022-08-19T04:18:30;1999.90;;;921.90;;
55035;SDS011;40936;53.008;6.556;2022-08-19T04:20:57;1999.90;;;999.90;;
55035;SDS011;40936;53.008;6.556;2022-08-19T04:23:23;1999.90;;;954.25;;
55035;SDS011;40936;53.008;6.556;2022-08-19T04:25:49;1999.90;;;815.10;;
55035;SDS011;40936;53.008;6.556;2022-08-19T04:28:15;1999.90;;;994.90;;
55035;SDS011;40936;53.008;6.556;2022-08-19T04:30:43;1999.90;;;926.88;;
55035;SDS011;40936;53.008;6.556;2022-08-19T04:33:12;1999.90;;;885.63;;
55035;SDS011;40936;53.008;6.556;2022-08-19T04:35:41;1999.90;;;960.45;;
55035;SDS011;40936;53.008;6.556;2022-08-19T04:38:10;1999.90;;;952.50;;
55035;SDS011;40936;53.008;6.556;2022-08-19T04:40:40;1999.90;;;999.90;;
55035;SDS011;40936;53.008;6.556;2022-08-19T04:43:27;1999.90;;;999.90;;
55035;SDS011;40936;53.008;6.556;2022-08-19T04:45:53;1999.90;;;999.90;;
55035;SDS011;40936;53.008;6.556;2022-08-19T04:48:19;1999.90;;;999.90;;
55035;SDS011;40936;53.008;6.556;2022-08-19T04:50:50;1999.90;;;999.90;;
55035;SDS011;40936;53.008;6.556;2022-08-19T04:53:22;1999.90;;;999.90;;
55035;SDS011;40936;53.008;6.556;2022-08-19T04:55:53;1999.90;;;999.90;;
55035;SDS011;40936;53.008;6.556;2022-08-19T04:58:20;1999.90;;;999.90;;
55035;SDS011;40936;53.008;6.556;2022-08-19T05:00:45;1999.90;;;999.90;;
55035;SDS011;40936;53.008;6.556;2022-08-19T05:03:11;1999.90;;;999.90;;
55035;SDS011;40936;53.008;6.556;2022-08-19T05:05:39;1999.90;;;999.90;;
55035;SDS011;40936;53.008;6.556;2022-08-19T05:08:06;1999.90;;;999.90;;
55035;SDS011;40936;53.008;6.556;2022-08-19T05:10:34;1999.90;;;999.90;;
55035;SDS011;40936;53.008;6.556;2022-08-19T05:13:01;1999.90;;;999.90;;
55035;SDS011;40936;53.008;6.556;2022-08-19T05:15:27;1999.90;;;999.90;;
55035;SDS011;40936;53.008;6.556;2022-08-19T05:17:53;1999.90;;;999.90;;
55035;SDS011;40936;53.008;6.556;2022-08-19T05:20:37;1999.90;;;999.90;;
55035;SDS011;40936;53.008;6.556;2022-08-19T05:23:22;1999.90;;;999.90;;
55035;SDS011;40936;53.008;6.556;2022-08-19T05:25:48;1999.90;;;999.90;;
55035;SDS011;40936;53.008;6.556;2022-08-19T05:28:15;1999.90;;;999.90;;
55035;SDS011;40936;53.008;6.556;2022-08-19T05:30:41;1999.90;;;999.90;;
55035;SDS011;40936;53.008;6.556;2022-08-19T05:33:08;1999.90;;;999.90;;
55035;SDS011;40936;53.008;6.556;2022-08-19T05:35:35;1999.90;;;999.90;;
55035;SDS011;40936;53.008;6.556;2022-08-19T05:38:02;1999.90;;;999.90;;
55035;SDS011;40936;53.008;6.556;2022-08-19T05:40:28;1999.90;;;999.90;;
55035;SDS011;40936;53.008;6.556;2022-08-19T05:42:54;1999.90;;;999.90;;
55035;SDS011;40936;53.008;6.556;2022-08-19T05:45:20;1999.90;;;991.17;;
55035;SDS011;40936;53.008;6.556;2022-08-19T05:47:47;1999.90;;;999.90;;
55035;SDS011;40936;53.008;6.556;2022-08-19T05:50:13;1999.90;;;999.90;;
55035;SDS011;40936;53.008;6.556;2022-08-19T05:52:39;1999.90;;;999.90;;
55035;SDS011;40936;53.008;6.556;2022-08-19T05:55:05;1999.90;;;999.90;;
55035;SDS011;40936;53.008;6.556;2022-08-19T05:57:31;1999.90;;;999.90;;
55035;SDS011;40936;53.008;6.556;2022-08-19T05:59:57;1999.90;;;999.90;;
55035;SDS011;40936;53.008;6.556;2022-08-19T06:02:28;1999.90;;;999.90;;
55035;SDS011;40936;53.008;6.556;2022-08-19T06:04:55;1999.90;;;999.90;;
55035;SDS011;40936;53.008;6.556;2022-08-19T06:07:21;1999.90;;;999.90;;
55035;SDS011;40936;53.008;6.556;2022-08-19T06:09:46;1999.90;;;999.90;;
55035;SDS011;40936;53.008;6.556;2022-08-19T06:12:12;1999.90;;;999.90;;
55035;SDS011;40936;53.008;6.556;2022-08-19T06:14:38;1999.90;;;999.90;;
55035;SDS011;40936;53.008;6.556;2022-08-19T06:17:03;1846.13;;;810.00;;
55035;SDS011;40936;53.008;6.556;2022-08-19T06:19:29;1999.90;;;999.90;;
55035;SDS011;40936;53.008;6.556;2022-08-19T06:21:56;1999.90;;;999.90;;
55035;SDS011;40936;53.008;6.556;2022-08-19T06:24:24;1999.90;;;978.30;;
55035;SDS011;40936;53.008;6.556;2022-08-19T06:29:20;1999.90;;;999.90;;
55035;SDS011;40936;53.008;6.556;2022-08-19T06:31:52;1999.90;;;999.90;;
55035;SDS011;40936;53.008;6.556;2022-08-19T06:34:21;1999.90;;;999.90;;
55035;SDS011;40936;53.008;6.556;2022-08-19T06:36:49;1999.90;;;999.90;;
55035;SDS011;40936;53.008;6.556;2022-08-19T06:39:19;1999.90;;;999.90;;
55035;SDS011;40936;53.008;6.556;2022-08-19T06:41:48;1999.90;;;999.90;;
55035;SDS011;40936;53.008;6.556;2022-08-19T06:44:14;1999.90;;;999.90;;
55035;SDS011;40936;53.008;6.556;2022-08-19T06:46:40;1999.90;;;999.90;;
55035;SDS011;40936;53.008;6.556;2022-08-19T06:49:07;1999.90;;;999.90;;
55035;SDS011;40936;53.008;6.556;2022-08-19T06:51:36;1999.90;;;990.30;;
55035;SDS011;40936;53.008;6.556;2022-08-19T06:56:30;1999.90;;;999.90;;
55035;SDS011;40936;53.008;6.556;2022-08-19T06:59:07;1999.90;;;999.90;;
55035;SDS011;40936;53.008;6.556;2022-08-19T07:01:46;1999.90;;;999.90;;
55035;SDS011;40936;53.008;6.556;2022-08-19T07:06:42;1999.90;;;999.90;;
55035;SDS011;40936;53.008;6.556;2022-08-19T07:09:09;1999.90;;;999.90;;
55035;SDS011;40936;53.008;6.556;2022-08-19T07:11:36;1999.90;;;931.22;;
55035;SDS011;40936;53.008;6.556;2022-08-19T07:14:02;1999.90;;;999.90;;
55035;SDS011;40936;53.008;6.556;2022-08-19T07:16:29;1999.90;;;987.00;;
55035;SDS011;40936;53.008;6.556;2022-08-19T07:18:55;1999.90;;;999.90;;
55035;SDS011;40936;53.008;6.556;2022-08-19T07:21:25;1999.90;;;898.35;;
55035;SDS011;40936;53.008;6.556;2022-08-19T07:23:56;1999.90;;;999.90;;
55035;SDS011;40936;53.008;6.556;2022-08-19T07:26:27;1999.90;;;999.90;;
55035;SDS011;40936;53.008;6.556;2022-08-19T07:28:55;1999.90;;;788.90;;
55035;SDS011;40936;53.008;6.556;2022-08-19T07:31:24;1999.90;;;922.72;;
55035;SDS011;40936;53.008;6.556;2022-08-19T07:33:51;1999.90;;;880.30;;
55035;SDS011;40936;53.008;6.556;2022-08-19T07:36:22;1999.90;;;999.90;;
55035;SDS011;40936;53.008;6.556;2022-08-19T07:38:57;1999.90;;;999.90;;
55035;SDS011;40936;53.008;6.556;2022-08-19T07:41:25;1999.90;;;999.90;;
55035;SDS011;40936;53.008;6.556;2022-08-19T07:43:53;1999.90;;;999.90;;
55035;SDS011;40936;53.008;6.556;2022-08-19T07:46:20;846.35;;;779.05;;
55035;SDS011;40936;53.008;6.556;2022-08-19T07:48:46;1000.20;;;911.25;;
55035;SDS011;40936;53.008;6.556;2022-08-19T07:51:14;846.15;;;777.65;;
55035;SDS011;40936;53.008;6.556;2022-08-19T07:53:42;1126.05;;;997.33;;
55035;SDS011;40936;53.008;6.556;2022-08-19T07:58:37;1098.75;;;963.47;;
55035;SDS011;40936;53.008;6.556;2022-08-19T08:01:05;837.53;;;767.92;;
55035;SDS011;40936;53.008;6.556;2022-08-19T08:06:17;831.95;;;766.63;;
55035;SDS011;40936;53.008;6.556;2022-08-19T08:09:20;960.78;;;878.22;;
55035;SDS011;40936;53.008;6.556;2022-08-19T08:11:53;864.78;;;794.58;;
55035;SDS011;40936;53.008;6.556;2022-08-19T08:14:41;710.92;;;656.22;;
55035;SDS011;40936;53.008;6.556;2022-08-19T08:17:12;771.42;;;709.92;;
55035;SDS011;40936;53.008;6.556;2022-08-19T08:19:42;1002.35;;;897.13;;
55035;SDS011;40936;53.008;6.556;2022-08-19T08:22:10;987.85;;;893.45;;
55035;SDS011;40936;53.008;6.556;2022-08-19T08:25:06;1085.32;;;976.15;;
55035;SDS011;40936;53.008;6.556;2022-08-19T08:27:44;1084.90;;;975.10;;
55035;SDS011;40936;53.008;6.556;2022-08-19T08:30:12;1031.10;;;938.87;;
55035;SDS011;40936;53.008;6.556;2022-08-19T08:32:41;853.03;;;784.65;;
55035;SDS011;40936;53.008;6.556;2022-08-19T08:35:08;833.60;;;757.03;;
55035;SDS011;40936;53.008;6.556;2022-08-19T08:37:37;696.08;;;647.08;;
55035;SDS011;40936;53.008;6.556;2022-08-19T08:40:07;1041.07;;;922.22;;
55035;SDS011;40936;53.008;6.556;2022-08-19T08:42:58;721.47;;;665.75;;
55035;SDS011;40936;53.008;6.556;2022-08-19T08:46:08;780.42;;;723.15;;
55035;SDS011;40936;53.008;6.556;2022-08-19T08:48:58;941.45;;;849.20;;
55035;SDS011;40936;53.008;6.556;2022-08-19T08:51:32;711.90;;;659.85;;
55035;SDS011;40936;53.008;6.556;2022-08-19T08:54:12;899.92;;;817.53;;
55035;SDS011;40936;53.008;6.556;2022-08-19T08:56:43;787.70;;;725.60;;
55035;SDS011;40936;53.008;6.556;2022-08-19T08:59:19;718.40;;;665.13;;
55035;SDS011;40936;53.008;6.556;2022-08-19T09:01:49;811.28;;;749.00;;
55035;SDS011;40936;53.008;6.556;2022-08-19T09:04:15;784.20;;;727.03;;
55035;SDS011;40936;53.008;6.556;2022-08-19T09:09:27;889.22;;;821.30;;
55035;SDS011;40936;53.008;6.556;2022-08-19T09:17:33;660.38;;;613.15;;
55035;SDS011;40936;53.008;6.556;2022-08-19T09:22:37;987.05;;;899.40;;
55035;SDS011;40936;53.008;6.556;2022-08-19T09:25:05;880.03;;;808.40;;
55035;SDS011;40936;53.008;6.556;2022-08-19T09:27:32;768.08;;;712.60;;
55035;SDS011;40936;53.008;6.556;2022-08-19T09:29:59;1017.08;;;923.88;;
55035;SDS011;40936;53.008;6.556;2022-08-19T09:32:24;980.55;;;889.15;;
55035;SDS011;40936;53.008;6.556;2022-08-19T09:34:51;904.80;;;828.08;;
55035;SDS011;40936;53.008;6.556;2022-08-19T09:37:20;942.53;;;856.28;;
55035;SDS011;40936;53.008;6.556;2022-08-19T09:39:47;1083.55;;;979.45;;
55035;SDS011;40936;53.008;6.556;2022-08-19T09:42:12;856.50;;;788.65;;
55035;SDS011;40936;53.008;6.556;2022-08-19T09:44:42;996.45;;;904.83;;
55035;SDS011;40936;53.008;6.556;2022-08-19T09:47:08;1107.53;;;997.80;;
55035;SDS011;40936;53.008;6.556;2022-08-19T09:49:36;1015.08;;;920.67;;
55035;SDS011;40936;53.008;6.556;2022-08-19T09:52:02;1077.55;;;973.03;;
55035;SDS011;40936;53.008;6.556;2022-08-19T09:54:28;1025.13;;;928.08;;
55035;SDS011;40936;53.008;6.556;2022-08-19T09:56:54;959.50;;;879.30;;
55035;SDS011;40936;53.008;6.556;2022-08-19T09:59:22;1040.18;;;942.50;;
55035;SDS011;40936;53.008;6.556;2022-08-19T10:01:48;917.08;;;834.55;;
55035;SDS011;40936;53.008;6.556;2022-08-19T10:04:16;1022.05;;;926.15;;
55035;SDS011;40936;53.008;6.556;2022-08-19T10:06:42;1071.25;;;970.78;;
55035;SDS011;40936;53.008;6.556;2022-08-19T10:09:08;1015.65;;;921.58;;
55035;SDS011;40936;53.008;6.556;2022-08-19T10:11:36;1065.85;;;965.20;;
55035;SDS011;40936;53.008;6.556;2022-08-19T10:14:04;1057.40;;;958.50;;
55035;SDS011;40936;53.008;6.556;2022-08-19T10:16:33;1059.20;;;959.15;;
55035;SDS011;40936;53.008;6.556;2022-08-19T10:19:00;1010.25;;;917.60;;
55035;SDS011;40936;53.008;6.556;2022-08-19T10:21:28;1097.80;;;985.35;;
55035;SDS011;40936;53.008;6.556;2022-08-19T10:23:56;996.83;;;901.97;;
55035;SDS011;40936;53.008;6.556;2022-08-19T10:26:28;1070.88;;;970.03;;
55035;SDS011;40936;53.008;6.556;2022-08-19T10:28:57;1036.63;;;941.88;;
55035;SDS011;40936;53.008;6.556;2022-08-19T10:31:27;1102.40;;;993.80;;
55035;SDS011;40936;53.008;6.556;2022-08-19T10:33:55;870.10;;;801.42;;
55035;SDS011;40936;53.008;6.556;2022-08-19T10:36:25;1080.78;;;978.03;;
55035;SDS011;40936;53.008;6.556;2022-08-19T10:39:03;1064.35;;;966.75;;
55035;SDS011;40936;53.008;6.556;2022-08-19T10:41:33;935.13;;;854.38;;
55035;SDS011;40936;53.008;6.556;2022-08-19T10:44:02;783.60;;;721.50;;
55035;SDS011;40936;53.008;6.556;2022-08-19T10:46:31;982.67;;;894.22;;
55035;SDS011;40936;53.008;6.556;2022-08-19T10:48:58;953.88;;;868.15;;
55035;SDS011;40936;53.008;6.556;2022-08-19T10:51:25;1110.22;;;998.13;;
55035;SDS011;40936;53.008;6.556;2022-08-19T10:54:10;1094.22;;;987.15;;
55035;SDS011;40936;53.008;6.556;2022-08-19T10:56:36;1049.75;;;947.67;;
55035;SDS011;40936;53.008;6.556;2022-08-19T10:59:18;1039.10;;;947.85;;
55035;SDS011;40936;53.008;6.556;2022-08-19T11:01:46;945.33;;;869.15;;
55035;SDS011;40936;53.008;6.556;2022-08-19T11:04:13;819.88;;;758.35;;
55035;SDS011;40936;53.008;6.556;2022-08-19T11:06:40;850.28;;;781.95;;
55035;SDS011;40936;53.008;6.556;2022-08-19T11:09:08;852.80;;;788.92;;
55035;SDS011;40936;53.008;6.556;2022-08-19T11:11:36;865.90;;;800.17;;
55035;SDS011;40936;53.008;6.556;2022-08-19T11:14:10;807.47;;;742.28;;
55035;SDS011;40936;53.008;6.556;2022-08-19T11:16:39;993.70;;;911.88;;
55035;SDS011;40936;53.008;6.556;2022-08-19T11:19:06;848.60;;;782.08;;
55035;SDS011;40936;53.008;6.556;2022-08-19T11:21:34;937.30;;;863.38;;
55035;SDS011;40936;53.008;6.556;2022-08-19T11:24:09;907.28;;;837.13;;
55035;SDS011;40936;53.008;6.556;2022-08-19T11:26:38;1173.07;;;867.22;;
55035;SDS011;40936;53.008;6.556;2022-08-19T11:29:06;775.55;;;718.95;;
55035;SDS011;40936;53.008;6.556;2022-08-19T11:31:36;860.25;;;795.00;;
55035;SDS011;40936;53.008;6.556;2022-08-19T11:34:05;814.50;;;753.42;;
55035;SDS011;40936;53.008;6.556;2022-08-19T11:36:33;845.00;;;781.25;;
55035;SDS011;40936;53.008;6.556;2022-08-19T11:38:59;1999.90;;;999.90;;
55035;SDS011;40936;53.008;6.556;2022-08-19T11:43:53;781.88;;;720.55;;
55035;SDS011;40936;53.008;6.556;2022-08-19T11:46:20;741.75;;;690.15;;
55035;SDS011;40936;53.008;6.556;2022-08-19T11:48:48;790.53;;;730.35;;
55035;SDS011;40936;53.008;6.556;2022-08-19T11:51:16;794.40;;;736.65;;
55035;SDS011;40936;53.008;6.556;2022-08-19T11:53:44;927.40;;;846.78;;
55035;SDS011;40936;53.008;6.556;2022-08-19T11:56:10;939.38;;;858.05;;
55035;SDS011;40936;53.008;6.556;2022-08-19T11:58:37;924.53;;;842.70;;
55035;SDS011;40936;53.008;6.556;2022-08-19T12:01:13;1428.47;;;889.75;;
55035;SDS011;40936;53.008;6.556;2022-08-19T12:03:41;1999.90;;;999.90;;
55035;SDS011;40936;53.008;6.556;2022-08-19T12:06:09;1999.90;;;999.90;;
55035;SDS011;40936;53.008;6.556;2022-08-19T12:08:38;1436.95;;;892.55;;
55035;SDS011;40936;53.008;6.556;2022-08-19T12:11:08;1999.90;;;999.90;;
55035;SDS011;40936;53.008;6.556;2022-08-19T12:16:06;893.60;;;817.28;;
55035;SDS011;40936;53.008;6.556;2022-08-19T12:18:37;1999.90;;;999.90;;
55035;SDS011;40936;53.008;6.556;2022-08-19T12:21:09;1178.38;;;868.90;;
55035;SDS011;40936;53.008;6.556;2022-08-19T12:26:02;1618.90;;;969.47;;
55035;SDS011;40936;53.008;6.556;2022-08-19T12:28:28;1999.90;;;999.90;;
55035;SDS011;40936;53.008;6.556;2022-08-19T12:30:55;916.95;;;831.53;;
55035;SDS011;40936;53.008;6.556;2022-08-19T12:33:22;785.55;;;726.05;;
55035;SDS011;40936;53.008;6.556;2022-08-19T12:35:50;769.08;;;715.83;;
55035;SDS011;40936;53.008;6.556;2022-08-19T12:38:17;1593.63;;;906.40;;
55035;SDS011;40936;53.008;6.556;2022-08-19T12:40:46;845.35;;;777.25;;
55035;SDS011;40936;53.008;6.556;2022-08-19T12:43:13;824.00;;;758.00;;
55035;SDS011;40936;53.008;6.556;2022-08-19T12:45:41;849.10;;;779.70;;
55035;SDS011;40936;53.008;6.556;2022-08-19T12:48:07;1164.05;;;855.58;;
55035;SDS011;40936;53.008;6.556;2022-08-19T12:50:34;1999.90;;;999.90;;
55035;SDS011;40936;53.008;6.556;2022-08-19T12:52:59;964.72;;;870.15;;
55035;SDS011;40936;53.008;6.556;2022-08-19T12:55:25;1377.07;;;987.90;;
55035;SDS011;40936;53.008;6.556;2022-08-19T12:57:53;1999.90;;;999.90;;
55035;SDS011;40936;53.008;6.556;2022-08-19T13:00:20;1403.68;;;863.15;;
55035;SDS011;40936;53.008;6.556;2022-08-19T13:02:47;1999.90;;;999.90;;
55035;SDS011;40936;53.008;6.556;2022-08-19T13:05:19;1715.90;;;944.63;;
55035;SDS011;40936;53.008;6.556;2022-08-19T13:07:48;1999.90;;;999.90;;
55035;SDS011;40936;53.008;6.556;2022-08-19T13:10:16;1632.53;;;995.83;;
55035;SDS011;40936;53.008;6.556;2022-08-19T13:12:45;1772.68;;;994.50;;
55035;SDS011;40936;53.008;6.556;2022-08-19T13:15:12;1999.90;;;999.90;;
55035;SDS011;40936;53.008;6.556;2022-08-19T13:17:40;1889.18;;;999.90;;
55035;SDS011;40936;53.008;6.556;2022-08-19T13:20:07;1090.55;;;964.45;;
55035;SDS011;40936;53.008;6.556;2022-08-19T13:22:34;1254.53;;;999.90;;
55035;SDS011;40936;53.008;6.556;2022-08-19T13:25:03;1059.95;;;948.22;;
55035;SDS011;40936;53.008;6.556;2022-08-19T13:27:30;1075.38;;;968.55;;
55035;SDS011;40936;53.008;6.556;2022-08-19T13:29:56;1380.13;;;999.90;;
55035;SDS011;40936;53.008;6.556;2022-08-19T13:32:40;1288.88;;;999.90;;
55035;SDS011;40936;53.008;6.556;2022-08-19T13:35:24;1171.88;;;984.30;;
55035;SDS011;40936;53.008;6.556;2022-08-19T13:37:50;1552.57;;;999.90;;
55035;SDS011;40936;53.008;6.556;2022-08-19T13:40:17;1640.95;;;999.90;;
55035;SDS011;40936;53.008;6.556;2022-08-19T13:42:45;1703.82;;;999.90;;
55035;SDS011;40936;53.008;6.556;2022-08-19T13:45:13;1841.53;;;999.90;;
55035;SDS011;40936;53.008;6.556;2022-08-19T13:47:41;1864.60;;;999.90;;
55035;SDS011;40936;53.008;6.556;2022-08-19T13:50:09;1469.68;;;999.90;;
55035;SDS011;40936;53.008;6.556;2022-08-19T13:52:37;1534.97;;;999.90;;
55035;SDS011;40936;53.008;6.556;2022-08-19T13:55:04;1999.90;;;999.90;;
55035;SDS011;40936;53.008;6.556;2022-08-19T13:57:31;1411.30;;;999.90;;
55035;SDS011;40936;53.008;6.556;2022-08-19T13:59:57;1999.90;;;999.90;;
55035;SDS011;40936;53.008;6.556;2022-08-19T14:02:23;1953.90;;;999.90;;
55035;SDS011;40936;53.008;6.556;2022-08-19T14:04:49;1999.90;;;999.90;;
55035;SDS011;40936;53.008;6.556;2022-08-19T14:07:15;1418.22;;;999.90;;
55035;SDS011;40936;53.008;6.556;2022-08-19T14:09:41;1690.18;;;999.90;;
55035;SDS011;40936;53.008;6.556;2022-08-19T14:12:06;1999.90;;;999.90;;
55035;SDS011;40936;53.008;6.556;2022-08-19T14:14:36;1901.10;;;999.90;;
55035;SDS011;40936;53.008;6.556;2022-08-19T14:17:06;1827.60;;;999.90;;
55035;SDS011;40936;53.008;6.556;2022-08-19T14:19:34;1999.90;;;999.90;;
55035;SDS011;40936;53.008;6.556;2022-08-19T14:22:00;1928.10;;;999.90;;
55035;SDS011;40936;53.008;6.556;2022-08-19T14:24:26;1981.88;;;999.90;;
55035;SDS011;40936;53.008;6.556;2022-08-19T14:26:52;1312.03;;;999.90;;
55035;SDS011;40936;53.008;6.556;2022-08-19T14:29:18;1409.90;;;999.90;;
55035;SDS011;40936;53.008;6.556;2022-08-19T14:31:44;1883.32;;;999.90;;